Grafton, North Dakota
Current Conditions -  °F | °C
As of 4:55 AM on Friday 28 Nov 2014 (Local Time) from KGAF Reporting Station
Light Snow Light Snow  
Wind Chill:   Ceiling: 3300
Heat Index: 10°   Visibility: 8mi
Dew Point:   Wind: 7mph
Humidity: 85%   Direction: 110°ESE
Pressure: 30.04"   Gusts: NA
Location:  48.41°N, 97.41°W
Report Text: KGAF 281055Z AUTO 11006KT 8SM -SN OVC033 M12/M14 A3004 RMK AO2
Loading
Personal Weather Stations






























Interactive Weather Map New forecast layout! Learn more

10-Day Weather Forecast

Advertisements
Track Severe Weather on mobile